sensor_id;sensor_type;location;lat;lon;timestamp;P1;durP1;ratioP1;P2;durP2;ratioP2
14346;SDS011;7257;52.158;9.968;2022-12-18T00:00:06;10.88;;;7.30;;
14346;SDS011;7257;52.158;9.968;2022-12-18T00:00:28;9.35;;;7.25;;
14346;SDS011;7257;52.158;9.968;2022-12-18T00:00:49;10.10;;;7.93;;
14346;SDS011;7257;52.158;9.968;2022-12-18T00:01:14;12.10;;;9.03;;
14346;SDS011;7257;52.158;9.968;2022-12-18T00:01:37;10.50;;;8.10;;
14346;SDS011;7257;52.158;9.968;2022-12-18T00:01:59;10.82;;;7.57;;
14346;SDS011;7257;52.158;9.968;2022-12-18T00:02:20;10.98;;;7.80;;
14346;SDS011;7257;52.158;9.968;2022-12-18T00:02:42;10.40;;;7.97;;
14346;SDS011;7257;52.158;9.968;2022-12-18T00:03:03;10.45;;;7.35;;
14346;SDS011;7257;52.158;9.968;2022-12-18T00:03:24;11.65;;;7.22;;
14346;SDS011;7257;52.158;9.968;2022-12-18T00:03:45;11.98;;;7.35;;
14346;SDS011;7257;52.158;9.968;2022-12-18T00:04:07;11.57;;;7.45;;
14346;SDS011;7257;52.158;9.968;2022-12-18T00:04:35;11.05;;;7.40;;
14346;SDS011;7257;52.158;9.968;2022-12-18T00:05:00;10.88;;;7.38;;
14346;SDS011;7257;52.158;9.968;2022-12-18T00:05:20;9.57;;;7.15;;
14346;SDS011;7257;52.158;9.968;2022-12-18T00:05:47;10.38;;;7.25;;
14346;SDS011;7257;52.158;9.968;2022-12-18T00:06:08;11.80;;;7.90;;
14346;SDS011;7257;52.158;9.968;2022-12-18T00:06:31;10.88;;;8.02;;
14346;SDS011;7257;52.158;9.968;2022-12-18T00:06:53;10.63;;;7.93;;
14346;SDS011;7257;52.158;9.968;2022-12-18T00:07:14;9.20;;;7.32;;
14346;SDS011;7257;52.158;9.968;2022-12-18T00:07:36;8.77;;;6.75;;
14346;SDS011;7257;52.158;9.968;2022-12-18T00:07:57;10.10;;;6.88;;
14346;SDS011;7257;52.158;9.968;2022-12-18T00:08:18;11.82;;;7.40;;
14346;SDS011;7257;52.158;9.968;2022-12-18T00:08:39;13.50;;;8.00;;
14346;SDS011;7257;52.158;9.968;2022-12-18T00:09:01;11.57;;;7.78;;
14346;SDS011;7257;52.158;9.968;2022-12-18T00:09:23;11.05;;;7.53;;
14346;SDS011;7257;52.158;9.968;2022-12-18T00:09:44;13.55;;;7.90;;
14346;SDS011;7257;52.158;9.968;2022-12-18T00:10:06;14.27;;;8.40;;
14346;SDS011;7257;52.158;9.968;2022-12-18T00:10:27;13.65;;;8.13;;
14346;SDS011;7257;52.158;9.968;2022-12-18T00:10:50;10.20;;;7.75;;
14346;SDS011;7257;52.158;9.968;2022-12-18T00:11:12;10.43;;;7.85;;
14346;SDS011;7257;52.158;9.968;2022-12-18T00:11:35;11.35;;;8.00;;
14346;SDS011;7257;52.158;9.968;2022-12-18T00:11:56;11.65;;;7.80;;
14346;SDS011;7257;52.158;9.968;2022-12-18T00:12:17;12.10;;;8.38;;
14346;SDS011;7257;52.158;9.968;2022-12-18T00:12:38;11.73;;;8.63;;
14346;SDS011;7257;52.158;9.968;2022-12-18T00:12:59;9.88;;;7.60;;
14346;SDS011;7257;52.158;9.968;2022-12-18T00:13:20;9.63;;;7.38;;
14346;SDS011;7257;52.158;9.968;2022-12-18T00:13:41;9.20;;;7.20;;
14346;SDS011;7257;52.158;9.968;2022-12-18T00:14:02;9.02;;;7.22;;
14346;SDS011;7257;52.158;9.968;2022-12-18T00:14:24;9.60;;;7.38;;
14346;SDS011;7257;52.158;9.968;2022-12-18T00:14:45;10.32;;;7.25;;
14346;SDS011;7257;52.158;9.968;2022-12-18T00:15:06;11.43;;;7.50;;
14346;SDS011;7257;52.158;9.968;2022-12-18T00:15:27;10.27;;;7.60;;
14346;SDS011;7257;52.158;9.968;2022-12-18T00:15:49;10.90;;;8.52;;
14346;SDS011;7257;52.158;9.968;2022-12-18T00:16:11;11.05;;;8.80;;
14346;SDS011;7257;52.158;9.968;2022-12-18T00:16:33;11.80;;;8.45;;
14346;SDS011;7257;52.158;9.968;2022-12-18T00:16:56;12.55;;;7.65;;
14346;SDS011;7257;52.158;9.968;2022-12-18T00:17:22;13.35;;;8.05;;
14346;SDS011;7257;52.158;9.968;2022-12-18T00:17:42;14.45;;;8.93;;
14346;SDS011;7257;52.158;9.968;2022-12-18T00:18:03;15.65;;;9.90;;
14346;SDS011;7257;52.158;9.968;2022-12-18T00:18:24;15.45;;;10.07;;
14346;SDS011;7257;52.158;9.968;2022-12-18T00:18:45;15.68;;;9.70;;
14346;SDS011;7257;52.158;9.968;2022-12-18T00:19:08;15.27;;;8.90;;
14346;SDS011;7257;52.158;9.968;2022-12-18T00:19:30;13.85;;;8.80;;
14346;SDS011;7257;52.158;9.968;2022-12-18T00:19:50;12.23;;;8.68;;
14346;SDS011;7257;52.158;9.968;2022-12-18T00:20:11;11.97;;;8.73;;
14346;SDS011;7257;52.158;9.968;2022-12-18T00:20:35;13.32;;;9.20;;
14346;SDS011;7257;52.158;9.968;2022-12-18T00:20:58;12.93;;;8.50;;
14346;SDS011;7257;52.158;9.968;2022-12-18T00:21:19;11.95;;;8.07;;
14346;SDS011;7257;52.158;9.968;2022-12-18T00:21:41;10.13;;;7.72;;
14346;SDS011;7257;52.158;9.968;2022-12-18T00:22:03;11.10;;;8.10;;
14346;SDS011;7257;52.158;9.968;2022-12-18T00:22:26;12.50;;;8.25;;
14346;SDS011;7257;52.158;9.968;2022-12-18T00:22:46;12.85;;;8.38;;
14346;SDS011;7257;52.158;9.968;2022-12-18T00:23:07;12.07;;;8.05;;
14346;SDS011;7257;52.158;9.968;2022-12-18T00:23:29;11.38;;;8.00;;
14346;SDS011;7257;52.158;9.968;2022-12-18T00:23:51;10.80;;;7.80;;
14346;SDS011;7257;52.158;9.968;2022-12-18T00:24:12;11.40;;;8.10;;
14346;SDS011;7257;52.158;9.968;2022-12-18T00:24:33;11.18;;;8.23;;
14346;SDS011;7257;52.158;9.968;2022-12-18T00:24:55;11.65;;;8.55;;
14346;SDS011;7257;52.158;9.968;2022-12-18T00:25:15;12.35;;;8.40;;
14346;SDS011;7257;52.158;9.968;2022-12-18T00:25:36;11.93;;;8.17;;
14346;SDS011;7257;52.158;9.968;2022-12-18T00:25:58;10.80;;;7.50;;
14346;SDS011;7257;52.158;9.968;2022-12-18T00:26:19;9.40;;;7.45;;
14346;SDS011;7257;52.158;9.968;2022-12-18T00:26:43;11.90;;;7.70;;
14346;SDS011;7257;52.158;9.968;2022-12-18T00:27:04;11.88;;;7.90;;
14346;SDS011;7257;52.158;9.968;2022-12-18T00:27:25;11.95;;;7.53;;
14346;SDS011;7257;52.158;9.968;2022-12-18T00:27:46;9.52;;;7.80;;
14346;SDS011;7257;52.158;9.968;2022-12-18T00:28:08;8.90;;;7.78;;
14346;SDS011;7257;52.158;9.968;2022-12-18T00:28:28;9.30;;;8.07;;
14346;SDS011;7257;52.158;9.968;2022-12-18T00:28:50;10.52;;;8.00;;
14346;SDS011;7257;52.158;9.968;2022-12-18T00:29:12;11.20;;;8.27;;
14346;SDS011;7257;52.158;9.968;2022-12-18T00:29:34;11.88;;;8.57;;
14346;SDS011;7257;52.158;9.968;2022-12-18T00:29:55;10.57;;;8.73;;
14346;SDS011;7257;52.158;9.968;2022-12-18T00:30:16;10.98;;;8.35;;
14346;SDS011;7257;52.158;9.968;2022-12-18T00:30:37;10.85;;;8.20;;
14346;SDS011;7257;52.158;9.968;2022-12-18T00:31:01;10.13;;;7.38;;
14346;SDS011;7257;52.158;9.968;2022-12-18T00:31:23;9.85;;;7.45;;
14346;SDS011;7257;52.158;9.968;2022-12-18T00:31:46;11.95;;;7.82;;
14346;SDS011;7257;52.158;9.968;2022-12-18T00:32:06;12.52;;;8.55;;
14346;SDS011;7257;52.158;9.968;2022-12-18T00:32:29;12.90;;;8.73;;
14346;SDS011;7257;52.158;9.968;2022-12-18T00:32:50;10.80;;;8.52;;
14346;SDS011;7257;52.158;9.968;2022-12-18T00:33:11;9.82;;;7.75;;
14346;SDS011;7257;52.158;9.968;2022-12-18T00:33:32;8.95;;;7.28;;
14346;SDS011;7257;52.158;9.968;2022-12-18T00:33:54;9.02;;;6.88;;
14346;SDS011;7257;52.158;9.968;2022-12-18T00:34:15;9.73;;;6.97;;
14346;SDS011;7257;52.158;9.968;2022-12-18T00:34:37;11.02;;;7.50;;
14346;SDS011;7257;52.158;9.968;2022-12-18T00:34:57;11.20;;;8.00;;
14346;SDS011;7257;52.158;9.968;2022-12-18T00:35:18;11.48;;;8.88;;
14346;SDS011;7257;52.158;9.968;2022-12-18T00:35:39;11.63;;;9.07;;
14346;SDS011;7257;52.158;9.968;2022-12-18T00:36:01;11.63;;;8.85;;
14346;SDS011;7257;52.158;9.968;2022-12-18T00:36:23;12.20;;;8.55;;
14346;SDS011;7257;52.158;9.968;2022-12-18T00:36:47;11.10;;;8.13;;
14346;SDS011;7257;52.158;9.968;2022-12-18T00:37:08;10.00;;;7.50;;
14346;SDS011;7257;52.158;9.968;2022-12-18T00:37:29;9.18;;;7.13;;
14346;SDS011;7257;52.158;9.968;2022-12-18T00:37:50;10.98;;;7.60;;
14346;SDS011;7257;52.158;9.968;2022-12-18T00:38:11;13.55;;;8.20;;
14346;SDS011;7257;52.158;9.968;2022-12-18T00:38:33;14.15;;;8.18;;
14346;SDS011;7257;52.158;9.968;2022-12-18T00:38:54;12.75;;;7.70;;
14346;SDS011;7257;52.158;9.968;2022-12-18T00:39:17;12.05;;;8.40;;
14346;SDS011;7257;52.158;9.968;2022-12-18T00:39:38;10.50;;;7.70;;
14346;SDS011;7257;52.158;9.968;2022-12-18T00:39:58;10.90;;;7.60;;
14346;SDS011;7257;52.158;9.968;2022-12-18T00:40:19;11.40;;;6.80;;
14346;SDS011;7257;52.158;9.968;2022-12-18T00:40:40;11.82;;;7.05;;
14346;SDS011;7257;52.158;9.968;2022-12-18T00:41:02;11.43;;;7.00;;
14346;SDS011;7257;52.158;9.968;2022-12-18T00:41:24;10.43;;;7.38;;
14346;SDS011;7257;52.158;9.968;2022-12-18T00:42:03;8.40;;;6.55;;
14346;SDS011;7257;52.158;9.968;2022-12-18T00:42:42;9.40;;;6.40;;
14346;SDS011;7257;52.158;9.968;2022-12-18T00:43:15;11.77;;;7.55;;
14346;SDS011;7257;52.158;9.968;2022-12-18T00:43:38;10.93;;;7.80;;
14346;SDS011;7257;52.158;9.968;2022-12-18T00:43:58;10.00;;;7.88;;
14346;SDS011;7257;52.158;9.968;2022-12-18T00:44:19;10.60;;;6.88;;
14346;SDS011;7257;52.158;9.968;2022-12-18T00:44:40;11.55;;;7.00;;
14346;SDS011;7257;52.158;9.968;2022-12-18T00:45:02;13.45;;;7.22;;
14346;SDS011;7257;52.158;9.968;2022-12-18T00:45:24;12.50;;;7.88;;
14346;SDS011;7257;52.158;9.968;2022-12-18T00:45:45;11.38;;;7.70;;
14346;SDS011;7257;52.158;9.968;2022-12-18T00:46:06;10.02;;;7.25;;
14346;SDS011;7257;52.158;9.968;2022-12-18T00:46:27;11.10;;;6.93;;
14346;SDS011;7257;52.158;9.968;2022-12-18T00:46:49;11.80;;;7.13;;
14346;SDS011;7257;52.158;9.968;2022-12-18T00:47:10;10.50;;;7.10;;
14346;SDS011;7257;52.158;9.968;2022-12-18T00:47:32;10.80;;;7.32;;
14346;SDS011;7257;52.158;9.968;2022-12-18T00:47:53;10.20;;;7.22;;
14346;SDS011;7257;52.158;9.968;2022-12-18T00:48:15;11.20;;;7.40;;
14346;SDS011;7257;52.158;9.968;2022-12-18T00:48:36;10.52;;;7.22;;
14346;SDS011;7257;52.158;9.968;2022-12-18T00:48:57;12.77;;;7.60;;
14346;SDS011;7257;52.158;9.968;2022-12-18T00:49:19;12.05;;;7.80;;
14346;SDS011;7257;52.158;9.968;2022-12-18T00:49:41;10.45;;;7.18;;
14346;SDS011;7257;52.158;9.968;2022-12-18T00:50:02;9.23;;;6.63;;
14346;SDS011;7257;52.158;9.968;2022-12-18T00:50:24;9.98;;;6.38;;
14346;SDS011;7257;52.158;9.968;2022-12-18T00:50:45;9.50;;;6.55;;
14346;SDS011;7257;52.158;9.968;2022-12-18T00:51:07;8.73;;;7.00;;
14346;SDS011;7257;52.158;9.968;2022-12-18T00:51:29;9.48;;;7.25;;
14346;SDS011;7257;52.158;9.968;2022-12-18T00:51:56;9.50;;;6.50;;
14346;SDS011;7257;52.158;9.968;2022-12-18T00:52:17;11.02;;;6.60;;
14346;SDS011;7257;52.158;9.968;2022-12-18T00:52:41;11.55;;;6.95;;
14346;SDS011;7257;52.158;9.968;2022-12-18T00:53:02;10.75;;;6.65;;
14346;SDS011;7257;52.158;9.968;2022-12-18T00:53:23;9.95;;;6.00;;
14346;SDS011;7257;52.158;9.968;2022-12-18T00:53:44;9.27;;;6.28;;
14346;SDS011;7257;52.158;9.968;2022-12-18T00:54:06;10.25;;;6.75;;
14346;SDS011;7257;52.158;9.968;2022-12-18T00:54:27;10.98;;;7.95;;
14346;SDS011;7257;52.158;9.968;2022-12-18T00:54:48;11.63;;;8.20;;
14346;SDS011;7257;52.158;9.968;2022-12-18T00:55:09;11.65;;;8.60;;
14346;SDS011;7257;52.158;9.968;2022-12-18T00:55:31;11.00;;;8.05;;
14346;SDS011;7257;52.158;9.968;2022-12-18T00:55:52;11.00;;;7.72;;
14346;SDS011;7257;52.158;9.968;2022-12-18T00:56:13;10.40;;;7.43;;
14346;SDS011;7257;52.158;9.968;2022-12-18T00:56:34;10.13;;;7.00;;
14346;SDS011;7257;52.158;9.968;2022-12-18T00:56:57;10.13;;;6.97;;
14346;SDS011;7257;52.158;9.968;2022-12-18T00:57:18;9.80;;;6.75;;
14346;SDS011;7257;52.158;9.968;2022-12-18T00:57:39;10.25;;;6.82;;
14346;SDS011;7257;52.158;9.968;2022-12-18T00:58:00;10.85;;;6.95;;
14346;SDS011;7257;52.158;9.968;2022-12-18T00:58:21;10.75;;;7.07;;
14346;SDS011;7257;52.158;9.968;2022-12-18T00:58:43;11.20;;;7.22;;
14346;SDS011;7257;52.158;9.968;2022-12-18T00:59:04;9.50;;;6.63;;
14346;SDS011;7257;52.158;9.968;2022-12-18T00:59:25;8.25;;;6.10;;
14346;SDS011;7257;52.158;9.968;2022-12-18T00:59:46;8.13;;;6.25;;
14346;SDS011;7257;52.158;9.968;2022-12-18T01:00:07;9.40;;;6.95;;
14346;SDS011;7257;52.158;9.968;2022-12-18T01:00:30;10.50;;;7.20;;
14346;SDS011;7257;52.158;9.968;2022-12-18T01:00:52;10.15;;;6.68;;
14346;SDS011;7257;52.158;9.968;2022-12-18T01:01:13;9.35;;;6.05;;
14346;SDS011;7257;52.158;9.968;2022-12-18T01:01:34;7.38;;;5.88;;
14346;SDS011;7257;52.158;9.968;2022-12-18T01:01:55;7.67;;;6.20;;
14346;SDS011;7257;52.158;9.968;2022-12-18T01:02:17;9.13;;;6.80;;
14346;SDS011;7257;52.158;9.968;2022-12-18T01:02:39;11.40;;;7.70;;
14346;SDS011;7257;52.158;9.968;2022-12-18T01:03:00;10.43;;;7.78;;
14346;SDS011;7257;52.158;9.968;2022-12-18T01:03:21;10.15;;;7.95;;
14346;SDS011;7257;52.158;9.968;2022-12-18T01:03:43;9.48;;;7.20;;
14346;SDS011;7257;52.158;9.968;2022-12-18T01:04:06;10.40;;;6.78;;
14346;SDS011;7257;52.158;9.968;2022-12-18T01:04:27;8.65;;;6.35;;
14346;SDS011;7257;52.158;9.968;2022-12-18T01:04:48;7.80;;;6.22;;
14346;SDS011;7257;52.158;9.968;2022-12-18T01:05:10;8.45;;;6.57;;
14346;SDS011;7257;52.158;9.968;2022-12-18T01:05:32;9.45;;;6.70;;
14346;SDS011;7257;52.158;9.968;2022-12-18T01:05:53;10.57;;;6.93;;
14346;SDS011;7257;52.158;9.968;2022-12-18T01:06:15;8.95;;;6.50;;
14346;SDS011;7257;52.158;9.968;2022-12-18T01:06:36;8.63;;;6.85;;
14346;SDS011;7257;52.158;9.968;2022-12-18T01:06:58;8.55;;;6.95;;
14346;SDS011;7257;52.158;9.968;2022-12-18T01:07:19;9.20;;;7.35;;
14346;SDS011;7257;52.158;9.968;2022-12-18T01:07:40;10.27;;;7.63;;
14346;SDS011;7257;52.158;9.968;2022-12-18T01:08:01;12.77;;;7.45;;
14346;SDS011;7257;52.158;9.968;2022-12-18T01:08:22;12.68;;;7.07;;
14346;SDS011;7257;52.158;9.968;2022-12-18T01:08:44;12.13;;;7.13;;
14346;SDS011;7257;52.158;9.968;2022-12-18T01:09:05;11.73;;;7.20;;
14346;SDS011;7257;52.158;9.968;2022-12-18T01:09:26;11.77;;;7.03;;
14346;SDS011;7257;52.158;9.968;2022-12-18T01:09:47;12.88;;;6.90;;
14346;SDS011;7257;52.158;9.968;2022-12-18T01:10:09;11.60;;;6.93;;
14346;SDS011;7257;52.158;9.968;2022-12-18T01:10:32;11.57;;;7.18;;
14346;SDS011;7257;52.158;9.968;2022-12-18T01:10:53;10.07;;;7.15;;
14346;SDS011;7257;52.158;9.968;2022-12-18T01:11:15;9.77;;;7.28;;
14346;SDS011;7257;52.158;9.968;2022-12-18T01:11:37;10.20;;;7.32;;
14346;SDS011;7257;52.158;9.968;2022-12-18T01:11:58;9.07;;;6.67;;
14346;SDS011;7257;52.158;9.968;2022-12-18T01:12:20;8.88;;;6.15;;
14346;SDS011;7257;52.158;9.968;2022-12-18T01:12:41;7.90;;;6.00;;
14346;SDS011;7257;52.158;9.968;2022-12-18T01:13:02;9.20;;;6.40;;
14346;SDS011;7257;52.158;9.968;2022-12-18T01:13:22;9.80;;;7.00;;
14346;SDS011;7257;52.158;9.968;2022-12-18T01:13:44;11.15;;;7.60;;
14346;SDS011;7257;52.158;9.968;2022-12-18T01:14:05;11.82;;;8.38;;
14346;SDS011;7257;52.158;9.968;2022-12-18T01:14:26;12.07;;;8.45;;
14346;SDS011;7257;52.158;9.968;2022-12-18T01:14:47;10.93;;;8.38;;
14346;SDS011;7257;52.158;9.968;2022-12-18T01:15:10;12.57;;;7.85;;
14346;SDS011;7257;52.158;9.968;2022-12-18T01:15:33;11.43;;;7.28;;
14346;SDS011;7257;52.158;9.968;2022-12-18T01:15:54;11.38;;;7.07;;
14346;SDS011;7257;52.158;9.968;2022-12-18T01:16:16;10.07;;;7.13;;
14346;SDS011;7257;52.158;9.968;2022-12-18T01:16:37;11.32;;;7.45;;
14346;SDS011;7257;52.158;9.968;2022-12-18T01:16:59;11.10;;;7.47;;
14346;SDS011;7257;52.158;9.968;2022-12-18T01:17:22;11.65;;;8.50;;
14346;SDS011;7257;52.158;9.968;2022-12-18T01:17:44;11.57;;;8.32;;
14346;SDS011;7257;52.158;9.968;2022-12-18T01:18:05;10.90;;;7.80;;
14346;SDS011;7257;52.158;9.968;2022-12-18T01:18:26;10.77;;;7.60;;
14346;SDS011;7257;52.158;9.968;2022-12-18T01:18:50;11.15;;;7.35;;
14346;SDS011;7257;52.158;9.968;2022-12-18T01:19:12;11.93;;;7.20;;
14346;SDS011;7257;52.158;9.968;2022-12-18T01:19:33;12.55;;;6.63;;
14346;SDS011;7257;52.158;9.968;2022-12-18T01:19:54;12.23;;;6.75;;
14346;SDS011;7257;52.158;9.968;2022-12-18T01:20:16;11.98;;;6.80;;
14346;SDS011;7257;52.158;9.968;2022-12-18T01:20:37;11.70;;;7.10;;
14346;SDS011;7257;52.158;9.968;2022-12-18T01:20:58;10.85;;;7.65;;
14346;SDS011;7257;52.158;9.968;2022-12-18T01:21:19;9.52;;;7.53;;
14346;SDS011;7257;52.158;9.968;2022-12-18T01:21:42;10.20;;;7.95;;
14346;SDS011;7257;52.158;9.968;2022-12-18T01:22:02;10.57;;;7.40;;
14346;SDS011;7257;52.158;9.968;2022-12-18T01:22:23;10.25;;;7.45;;
14346;SDS011;7257;52.158;9.968;2022-12-18T01:22:44;8.60;;;6.93;;
14346;SDS011;7257;52.158;9.968;2022-12-18T01:23:05;8.55;;;6.88;;
14346;SDS011;7257;52.158;9.968;2022-12-18T01:23:27;10.07;;;6.85;;
14346;SDS011;7257;52.158;9.968;2022-12-18T01:23:50;9.70;;;6.60;;
14346;SDS011;7257;52.158;9.968;2022-12-18T01:24:12;10.98;;;6.90;;
14346;SDS011;7257;52.158;9.968;2022-12-18T01:24:33;9.90;;;6.70;;
14346;SDS011;7257;52.158;9.968;2022-12-18T01:24:55;10.07;;;6.85;;
14346;SDS011;7257;52.158;9.968;2022-12-18T01:25:15;10.70;;;7.70;;
14346;SDS011;7257;52.158;9.968;2022-12-18T01:25:36;10.00;;;8.07;;
14346;SDS011;7257;52.158;9.968;2022-12-18T01:26:03;9.68;;;8.15;;
14346;SDS011;7257;52.158;9.968;2022-12-18T01:26:25;9.57;;;7.60;;
14346;SDS011;7257;52.158;9.968;2022-12-18T01:26:49;12.02;;;8.20;;
14346;SDS011;7257;52.158;9.968;2022-12-18T01:27:10;11.40;;;7.80;;
14346;SDS011;7257;52.158;9.968;2022-12-18T01:27:32;11.30;;;7.88;;
14346;SDS011;7257;52.158;9.968;2022-12-18T01:27:53;11.30;;;7.65;;
14346;SDS011;7257;52.158;9.968;2022-12-18T01:28:14;12.27;;;7.65;;
14346;SDS011;7257;52.158;9.968;2022-12-18T01:28:35;11.95;;;7.38;;
14346;SDS011;7257;52.158;9.968;2022-12-18T01:28:57;10.98;;;7.50;;
14346;SDS011;7257;52.158;9.968;2022-12-18T01:29:18;11.35;;;7.85;;
14346;SDS011;7257;52.158;9.968;2022-12-18T01:29:39;12.40;;;8.35;;
14346;SDS011;7257;52.158;9.968;2022-12-18T01:30:00;15.43;;;9.05;;
14346;SDS011;7257;52.158;9.968;2022-12-18T01:30:21;13.50;;;8.57;;
14346;SDS011;7257;52.158;9.968;2022-12-18T01:30:43;12.60;;;8.27;;
14346;SDS011;7257;52.158;9.968;2022-12-18T01:31:14;9.70;;;7.10;;
14346;SDS011;7257;52.158;9.968;2022-12-18T01:31:36;10.77;;;7.10;;
14346;SDS011;7257;52.158;9.968;2022-12-18T01:31:57;12.52;;;7.28;;
14346;SDS011;7257;52.158;9.968;2022-12-18T01:32:18;11.80;;;7.35;;
14346;SDS011;7257;52.158;9.968;2022-12-18T01:32:40;12.52;;;7.25;;
14346;SDS011;7257;52.158;9.968;2022-12-18T01:33:02;12.15;;;7.50;;
14346;SDS011;7257;52.158;9.968;2022-12-18T01:33:25;12.82;;;7.50;;
14346;SDS011;7257;52.158;9.968;2022-12-18T01:33:48;12.63;;;7.05;;
14346;SDS011;7257;52.158;9.968;2022-12-18T01:34:11;11.35;;;7.10;;
14346;SDS011;7257;52.158;9.968;2022-12-18T01:34:32;11.68;;;7.47;;
14346;SDS011;7257;52.158;9.968;2022-12-18T01:34:55;11.63;;;7.72;;
14346;SDS011;7257;52.158;9.968;2022-12-18T01:35:16;10.73;;;7.17;;
14346;SDS011;7257;52.158;9.968;2022-12-18T01:35:40;11.00;;;7.20;;
14346;SDS011;7257;52.158;9.968;2022-12-18T01:36:01;11.63;;;7.50;;
14346;SDS011;7257;52.158;9.968;2022-12-18T01:36:23;12.38;;;7.63;;
14346;SDS011;7257;52.158;9.968;2022-12-18T01:36:45;11.88;;;7.75;;
14346;SDS011;7257;52.158;9.968;2022-12-18T01:37:06;11.88;;;7.35;;
14346;SDS011;7257;52.158;9.968;2022-12-18T01:37:27;11.50;;;6.82;;
14346;SDS011;7257;52.158;9.968;2022-12-18T01:37:48;11.35;;;6.95;;
14346;SDS011;7257;52.158;9.968;2022-12-18T01:38:09;12.80;;;7.25;;
14346;SDS011;7257;52.158;9.968;2022-12-18T01:38:30;12.80;;;7.38;;
14346;SDS011;7257;52.158;9.968;2022-12-18T01:38:51;11.82;;;6.90;;
14346;SDS011;7257;52.158;9.968;2022-12-18T01:39:13;8.80;;;6.57;;
14346;SDS011;7257;52.158;9.968;2022-12-18T01:39:35;9.32;;;6.90;;
14346;SDS011;7257;52.158;9.968;2022-12-18T01:39:56;10.20;;;7.35;;
14346;SDS011;7257;52.158;9.968;2022-12-18T01:40:17;9.75;;;7.50;;
14346;SDS011;7257;52.158;9.968;2022-12-18T01:40:39;10.20;;;7.75;;
14346;SDS011;7257;52.158;9.968;2022-12-18T01:41:00;9.27;;;7.28;;
14346;SDS011;7257;52.158;9.968;2022-12-18T01:41:22;12.65;;;7.65;;
14346;SDS011;7257;52.158;9.968;2022-12-18T01:41:44;11.65;;;7.20;;
14346;SDS011;7257;52.158;9.968;2022-12-18T01:42:22;9.43;;;7.53;;
14346;SDS011;7257;52.158;9.968;2022-12-18T01:42:43;10.65;;;7.90;;
14346;SDS011;7257;52.158;9.968;2022-12-18T01:43:04;11.65;;;8.18;;
14346;SDS011;7257;52.158;9.968;2022-12-18T01:43:40;11.18;;;7.45;;
14346;SDS011;7257;52.158;9.968;2022-12-18T01:45:01;10.30;;;6.63;;
14346;SDS011;7257;52.158;9.968;2022-12-18T01:45:26;10.57;;;6.85;;
14346;SDS011;7257;52.158;9.968;2022-12-18T01:45:49;9.65;;;7.30;;
14346;SDS011;7257;52.158;9.968;2022-12-18T01:46:09;9.75;;;7.63;;
14346;SDS011;7257;52.158;9.968;2022-12-18T01:46:30;11.18;;;8.35;;
14346;SDS011;7257;52.158;9.968;2022-12-18T01:46:52;9.85;;;8.00;;
14346;SDS011;7257;52.158;9.968;2022-12-18T01:47:13;9.98;;;7.38;;
14346;SDS011;7257;52.158;9.968;2022-12-18T01:47:39;8.70;;;6.70;;
14346;SDS011;7257;52.158;9.968;2022-12-18T01:48:05;8.82;;;7.32;;
14346;SDS011;7257;52.158;9.968;2022-12-18T01:48:28;9.05;;;7.88;;
14346;SDS011;7257;52.158;9.968;2022-12-18T01:48:51;10.38;;;8.15;;
14346;SDS011;7257;52.158;9.968;2022-12-18T01:49:15;9.38;;;7.05;;
14346;SDS011;7257;52.158;9.968;2022-12-18T01:49:36;9.25;;;7.10;;
14346;SDS011;7257;52.158;9.968;2022-12-18T01:49:58;9.40;;;7.22;;
14346;SDS011;7257;52.158;9.968;2022-12-18T01:50:22;12.88;;;8.00;;
14346;SDS011;7257;52.158;9.968;2022-12-18T01:50:45;13.70;;;7.90;;
14346;SDS011;7257;52.158;9.968;2022-12-18T01:51:07;13.85;;;8.40;;
14346;SDS011;7257;52.158;9.968;2022-12-18T01:51:29;12.95;;;8.00;;
14346;SDS011;7257;52.158;9.968;2022-12-18T01:51:51;11.80;;;7.55;;
14346;SDS011;7257;52.158;9.968;2022-12-18T01:52:12;10.80;;;7.28;;
14346;SDS011;7257;52.158;9.968;2022-12-18T01:52:35;9.13;;;7.03;;
14346;SDS011;7257;52.158;9.968;2022-12-18T01:52:57;12.35;;;7.93;;
14346;SDS011;7257;52.158;9.968;2022-12-18T01:53:21;11.20;;;7.40;;
14346;SDS011;7257;52.158;9.968;2022-12-18T01:53:43;10.90;;;7.28;;
14346;SDS011;7257;52.158;9.968;2022-12-18T01:54:07;10.52;;;7.30;;
14346;SDS011;7257;52.158;9.968;2022-12-18T01:54:27;10.00;;;7.05;;
14346;SDS011;7257;52.158;9.968;2022-12-18T01:54:49;10.82;;;7.40;;
14346;SDS011;7257;52.158;9.968;2022-12-18T01:55:12;9.65;;;7.45;;
14346;SDS011;7257;52.158;9.968;2022-12-18T01:55:36;9.95;;;7.22;;
14346;SDS011;7257;52.158;9.968;2022-12-18T01:56:00;11.05;;;7.30;;
14346;SDS011;7257;52.158;9.968;2022-12-18T01:56:21;11.90;;;6.97;;
14346;SDS011;7257;52.158;9.968;2022-12-18T01:56:42;11.63;;;7.15;;
14346;SDS011;7257;52.158;9.968;2022-12-18T01:57:04;10.96;;;7.44;;
14346;SDS011;7257;52.158;9.968;2022-12-18T01:57:25;10.53;;;7.67;;
14346;SDS011;7257;52.158;9.968;2022-12-18T01:57:48;11.38;;;7.93;;
14346;SDS011;7257;52.158;9.968;2022-12-18T01:58:12;10.20;;;7.35;;
14346;SDS011;7257;52.158;9.968;2022-12-18T01:58:35;10.57;;;7.47;;
14346;SDS011;7257;52.158;9.968;2022-12-18T01:59:04;10.48;;;7.57;;
14346;SDS011;7257;52.158;9.968;2022-12-18T01:59:29;10.88;;;7.88;;
14346;SDS011;7257;52.158;9.968;2022-12-18T01:59:53;11.68;;;7.85;;
14346;SDS011;7257;52.158;9.968;2022-12-18T02:00:18;11.27;;;7.55;;
14346;SDS011;7257;52.158;9.968;2022-12-18T02:00:40;10.90;;;7.43;;
14346;SDS011;7257;52.158;9.968;2022-12-18T02:01:02;10.70;;;7.97;;
14346;SDS011;7257;52.158;9.968;2022-12-18T02:01:24;10.35;;;8.40;;
14346;SDS011;7257;52.158;9.968;2022-12-18T02:01:46;10.18;;;8.40;;
14346;SDS011;7257;52.158;9.968;2022-12-18T02:02:06;11.32;;;8.00;;
14346;SDS011;7257;52.158;9.968;2022-12-18T02:02:28;11.60;;;7.72;;
14346;SDS011;7257;52.158;9.968;2022-12-18T02:02:52;12.13;;;7.53;;
14346;SDS011;7257;52.158;9.968;2022-12-18T02:03:14;10.40;;;7.10;;
14346;SDS011;7257;52.158;9.968;2022-12-18T02:03:35;10.75;;;7.80;;
14346;SDS011;7257;52.158;9.968;2022-12-18T02:03:56;11.63;;;8.45;;
14346;SDS011;7257;52.158;9.968;2022-12-18T02:04:40;11.82;;;7.65;;
14346;SDS011;7257;52.158;9.968;2022-12-18T02:05:02;11.25;;;7.38;;
14346;SDS011;7257;52.158;9.968;2022-12-18T02:05:26;10.68;;;7.15;;
14346;SDS011;7257;52.158;9.968;2022-12-18T02:05:58;10.45;;;7.10;;
14346;SDS011;7257;52.158;9.968;2022-12-18T02:06:27;11.15;;;7.88;;
14346;SDS011;7257;52.158;9.968;2022-12-18T02:06:54;11.32;;;8.38;;
14346;SDS011;7257;52.158;9.968;2022-12-18T02:07:24;12.57;;;8.38;;
14346;SDS011;7257;52.158;9.968;2022-12-18T02:07:54;12.77;;;8.23;;
14346;SDS011;7257;52.158;9.968;2022-12-18T02:08:25;10.85;;;7.97;;
14346;SDS011;7257;52.158;9.968;2022-12-18T02:08:55;10.07;;;7.47;;
14346;SDS011;7257;52.158;9.968;2022-12-18T02:09:23;10.40;;;7.30;;
14346;SDS011;7257;52.158;9.968;2022-12-18T02:09:50;10.63;;;7.10;;
14346;SDS011;7257;52.158;9.968;2022-12-18T02:10:19;11.13;;;7.53;;
14346;SDS011;7257;52.158;9.968;2022-12-18T02:10:45;10.75;;;7.50;;
14346;SDS011;7257;52.158;9.968;2022-12-18T02:11:14;9.82;;;7.50;;
14346;SDS011;7257;52.158;9.968;2022-12-18T02:11:44;10.23;;;7.25;;
14346;SDS011;7257;52.158;9.968;2022-12-18T02:12:13;9.95;;;7.10;;
14346;SDS011;7257;52.158;9.968;2022-12-18T02:12:42;10.10;;;7.38;;
14346;SDS011;7257;52.158;9.968;2022-12-18T02:13:07;10.10;;;6.90;;
14346;SDS011;7257;52.158;9.968;2022-12-18T02:13:37;9.50;;;6.45;;
14346;SDS011;7257;52.158;9.968;2022-12-18T02:14:04;10.10;;;6.97;;
14346;SDS011;7257;52.158;9.968;2022-12-18T02:14:38;9.80;;;7.53;;
14346;SDS011;7257;52.158;9.968;2022-12-18T02:15:05;9.30;;;7.60;;
14346;SDS011;7257;52.158;9.968;2022-12-18T02:15:35;11.93;;;7.72;;
14346;SDS011;7257;52.158;9.968;2022-12-18T02:16:27;12.35;;;7.60;;
14346;SDS011;7257;52.158;9.968;2022-12-18T02:16:55;9.43;;;7.43;;
14346;SDS011;7257;52.158;9.968;2022-12-18T02:17:21;10.82;;;7.47;;
14346;SDS011;7257;52.158;9.968;2022-12-18T02:17:44;10.82;;;7.15;;